sensor_id;sensor_type;location;lat;lon;timestamp;temperature;humidity
52889;DHT22;41413;52.770;6.892;2023-02-12T00:02:02;7.20;99.90
52889;DHT22;41413;52.770;6.892;2023-02-12T00:04:28;7.20;99.90
52889;DHT22;41413;52.770;6.892;2023-02-12T00:06:55;7.20;99.90
52889;DHT22;41413;52.770;6.892;2023-02-12T00:09:22;7.20;99.90
52889;DHT22;41413;52.770;6.892;2023-02-12T00:11:48;7.20;99.90
52889;DHT22;41413;52.770;6.892;2023-02-12T00:14:15;7.10;99.90
52889;DHT22;41413;52.770;6.892;2023-02-12T00:16:42;7.20;99.90
52889;DHT22;41413;52.770;6.892;2023-02-12T00:19:09;7.20;99.90
52889;DHT22;41413;52.770;6.892;2023-02-12T00:21:36;7.20;99.90
52889;DHT22;41413;52.770;6.892;2023-02-12T00:24:03;7.20;99.90
52889;DHT22;41413;52.770;6.892;2023-02-12T00:26:29;7.10;99.90
52889;DHT22;41413;52.770;6.892;2023-02-12T00:28:56;7.10;99.90
52889;DHT22;41413;52.770;6.892;2023-02-12T00:31:25;7.10;99.90
52889;DHT22;41413;52.770;6.892;2023-02-12T00:33:52;7.10;99.90
52889;DHT22;41413;52.770;6.892;2023-02-12T00:36:22;7.10;99.90
52889;DHT22;41413;52.770;6.892;2023-02-12T00:38:52;7.10;99.90
52889;DHT22;41413;52.770;6.892;2023-02-12T00:41:19;7.10;99.90
52889;DHT22;41413;52.770;6.892;2023-02-12T00:43:46;7.10;99.90
52889;DHT22;41413;52.770;6.892;2023-02-12T00:46:14;7.00;99.90
52889;DHT22;41413;52.770;6.892;2023-02-12T00:48:41;7.00;99.90
52889;DHT22;41413;52.770;6.892;2023-02-12T00:51:08;7.00;99.90
52889;DHT22;41413;52.770;6.892;2023-02-12T00:53:35;7.00;99.90
52889;DHT22;41413;52.770;6.892;2023-02-12T00:56:02;7.00;99.90
52889;DHT22;41413;52.770;6.892;2023-02-12T00:58:29;7.00;99.90
52889;DHT22;41413;52.770;6.892;2023-02-12T01:00:55;6.90;99.90
52889;DHT22;41413;52.770;6.892;2023-02-12T01:03:23;6.90;99.90
52889;DHT22;41413;52.770;6.892;2023-02-12T01:05:50;6.90;99.90
52889;DHT22;41413;52.770;6.892;2023-02-12T01:08:17;6.90;99.90
52889;DHT22;41413;52.770;6.892;2023-02-12T01:10:44;7.00;99.90
52889;DHT22;41413;52.770;6.892;2023-02-12T01:13:13;7.00;99.90
52889;DHT22;41413;52.770;6.892;2023-02-12T01:15:41;7.00;99.90
52889;DHT22;41413;52.770;6.892;2023-02-12T01:18:07;6.90;99.90
52889;DHT22;41413;52.770;6.892;2023-02-12T01:20:34;6.90;99.90
52889;DHT22;41413;52.770;6.892;2023-02-12T01:23:01;7.00;99.90
52889;DHT22;41413;52.770;6.892;2023-02-12T01:25:28;6.90;99.90
52889;DHT22;41413;52.770;6.892;2023-02-12T01:27:55;6.90;99.90
52889;DHT22;41413;52.770;6.892;2023-02-12T01:30:21;6.90;99.90
52889;DHT22;41413;52.770;6.892;2023-02-12T01:32:49;6.80;99.90
52889;DHT22;41413;52.770;6.892;2023-02-12T01:35:16;6.80;99.90
52889;DHT22;41413;52.770;6.892;2023-02-12T01:37:43;6.80;99.90
52889;DHT22;41413;52.770;6.892;2023-02-12T01:40:13;6.80;99.90
52889;DHT22;41413;52.770;6.892;2023-02-12T01:42:40;6.80;99.90
52889;DHT22;41413;52.770;6.892;2023-02-12T01:47:44;6.80;99.90
52889;DHT22;41413;52.770;6.892;2023-02-12T01:50:13;6.80;99.90
52889;DHT22;41413;52.770;6.892;2023-02-12T01:52:44;6.80;99.90
52889;DHT22;41413;52.770;6.892;2023-02-12T01:55:12;6.80;99.90
52889;DHT22;41413;52.770;6.892;2023-02-12T01:57:42;6.80;99.90
52889;DHT22;41413;52.770;6.892;2023-02-12T02:00:14;6.70;99.90
52889;DHT22;41413;52.770;6.892;2023-02-12T02:02:43;6.70;99.90
52889;DHT22;41413;52.770;6.892;2023-02-12T02:05:13;6.70;99.90
52889;DHT22;41413;52.770;6.892;2023-02-12T02:07:44;6.70;99.90
52889;DHT22;41413;52.770;6.892;2023-02-12T02:10:11;6.60;99.90
52889;DHT22;41413;52.770;6.892;2023-02-12T02:12:38;6.70;99.90
52889;DHT22;41413;52.770;6.892;2023-02-12T02:15:24;6.70;99.90
52889;DHT22;41413;52.770;6.892;2023-02-12T02:18:09;6.70;99.90
52889;DHT22;41413;52.770;6.892;2023-02-12T02:32:16;6.70;99.90
52889;DHT22;41413;52.770;6.892;2023-02-12T02:34:54;6.60;99.90
52889;DHT22;41413;52.770;6.892;2023-02-12T02:37:37;6.70;99.90
52889;DHT22;41413;52.770;6.892;2023-02-12T02:40:18;6.60;99.90
52889;DHT22;41413;52.770;6.892;2023-02-12T02:43:10;6.60;99.90
52889;DHT22;41413;52.770;6.892;2023-02-12T02:45:47;6.60;99.90
52889;DHT22;41413;52.770;6.892;2023-02-12T02:48:28;6.60;99.90
52889;DHT22;41413;52.770;6.892;2023-02-12T02:51:08;6.60;99.90
52889;DHT22;41413;52.770;6.892;2023-02-12T02:53:42;6.50;99.90
52889;DHT22;41413;52.770;6.892;2023-02-12T02:56:14;6.60;99.90
52889;DHT22;41413;52.770;6.892;2023-02-12T02:58:44;6.50;99.90
52889;DHT22;41413;52.770;6.892;2023-02-12T03:01:13;6.50;99.90
52889;DHT22;41413;52.770;6.892;2023-02-12T03:06:42;6.60;99.90
52889;DHT22;41413;52.770;6.892;2023-02-12T03:11:45;6.60;99.90
52889;DHT22;41413;52.770;6.892;2023-02-12T03:14:17;6.60;99.90
52889;DHT22;41413;52.770;6.892;2023-02-12T03:16:56;6.50;99.90
52889;DHT22;41413;52.770;6.892;2023-02-12T03:19:28;6.50;99.90
52889;DHT22;41413;52.770;6.892;2023-02-12T03:21:59;6.50;99.90
52889;DHT22;41413;52.770;6.892;2023-02-12T03:27:33;6.50;99.90
52889;DHT22;41413;52.770;6.892;2023-02-12T03:30:04;6.50;99.90
52889;DHT22;41413;52.770;6.892;2023-02-12T03:36:06;6.50;99.90
52889;DHT22;41413;52.770;6.892;2023-02-12T03:38:44;6.40;99.90
52889;DHT22;41413;52.770;6.892;2023-02-12T03:41:26;6.40;99.90
52889;DHT22;41413;52.770;6.892;2023-02-12T03:44:04;6.50;99.90
52889;DHT22;41413;52.770;6.892;2023-02-12T03:46:42;6.30;99.90
52889;DHT22;41413;52.770;6.892;2023-02-12T03:49:54;6.40;99.90
52889;DHT22;41413;52.770;6.892;2023-02-12T03:52:12;6.30;99.90
52889;DHT22;41413;52.770;6.892;2023-02-12T03:54:39;6.40;99.90
52889;DHT22;41413;52.770;6.892;2023-02-12T03:57:19;6.30;99.90
52889;DHT22;41413;52.770;6.892;2023-02-12T03:59:47;6.30;99.90
52889;DHT22;41413;52.770;6.892;2023-02-12T04:02:16;6.30;99.90
52889;DHT22;41413;52.770;6.892;2023-02-12T04:04:44;6.30;99.90
52889;DHT22;41413;52.770;6.892;2023-02-12T04:07:12;6.20;99.90
52889;DHT22;41413;52.770;6.892;2023-02-12T04:09:39;6.20;99.90
52889;DHT22;41413;52.770;6.892;2023-02-12T04:12:19;6.30;99.90
52889;DHT22;41413;52.770;6.892;2023-02-12T04:20:52;6.30;99.90
52889;DHT22;41413;52.770;6.892;2023-02-12T04:26:09;6.40;99.90
52889;DHT22;41413;52.770;6.892;2023-02-12T04:31:53;6.40;99.90
52889;DHT22;41413;52.770;6.892;2023-02-12T04:37:21;6.40;99.90
52889;DHT22;41413;52.770;6.892;2023-02-12T04:39:50;6.30;99.90
52889;DHT22;41413;52.770;6.892;2023-02-12T04:42:18;6.40;99.90
52889;DHT22;41413;52.770;6.892;2023-02-12T04:44:45;6.40;99.90
52889;DHT22;41413;52.770;6.892;2023-02-12T04:47:13;6.40;99.90
52889;DHT22;41413;52.770;6.892;2023-02-12T04:49:40;6.40;99.90
52889;DHT22;41413;52.770;6.892;2023-02-12T04:52:08;6.30;99.90
52889;DHT22;41413;52.770;6.892;2023-02-12T04:54:35;6.30;99.90
52889;DHT22;41413;52.770;6.892;2023-02-12T04:57:01;6.30;99.90
52889;DHT22;41413;52.770;6.892;2023-02-12T04:59:28;6.30;99.90
52889;DHT22;41413;52.770;6.892;2023-02-12T05:01:55;6.30;99.90
52889;DHT22;41413;52.770;6.892;2023-02-12T05:04:22;6.30;99.90
52889;DHT22;41413;52.770;6.892;2023-02-12T05:06:48;6.30;99.90
52889;DHT22;41413;52.770;6.892;2023-02-12T05:09:18;6.30;99.90
52889;DHT22;41413;52.770;6.892;2023-02-12T05:11:46;6.30;99.90
52889;DHT22;41413;52.770;6.892;2023-02-12T05:14:12;6.40;99.90
52889;DHT22;41413;52.770;6.892;2023-02-12T05:16:39;6.30;99.90
52889;DHT22;41413;52.770;6.892;2023-02-12T05:19:06;6.30;99.90
52889;DHT22;41413;52.770;6.892;2023-02-12T05:21:36;6.30;99.90
52889;DHT22;41413;52.770;6.892;2023-02-12T05:24:03;6.30;99.90
52889;DHT22;41413;52.770;6.892;2023-02-12T05:26:29;6.30;99.90
52889;DHT22;41413;52.770;6.892;2023-02-12T05:28:56;6.30;99.90
52889;DHT22;41413;52.770;6.892;2023-02-12T05:31:23;6.20;99.90
52889;DHT22;41413;52.770;6.892;2023-02-12T05:33:50;6.30;99.90
52889;DHT22;41413;52.770;6.892;2023-02-12T05:36:20;6.20;99.90
52889;DHT22;41413;52.770;6.892;2023-02-12T05:38:48;6.70;99.90
52889;DHT22;41413;52.770;6.892;2023-02-12T05:41:20;6.10;99.90
52889;DHT22;41413;52.770;6.892;2023-02-12T05:43:48;6.10;99.90
52889;DHT22;41413;52.770;6.892;2023-02-12T05:46:16;6.00;99.90
52889;DHT22;41413;52.770;6.892;2023-02-12T05:48:44;6.00;99.90
52889;DHT22;41413;52.770;6.892;2023-02-12T05:51:14;6.00;99.90
52889;DHT22;41413;52.770;6.892;2023-02-12T05:53:41;6.00;99.90
52889;DHT22;41413;52.770;6.892;2023-02-12T05:58:39;5.90;99.90
52889;DHT22;41413;52.770;6.892;2023-02-12T06:01:13;5.90;99.90
52889;DHT22;41413;52.770;6.892;2023-02-12T06:03:40;5.90;99.90
52889;DHT22;41413;52.770;6.892;2023-02-12T06:06:07;5.80;99.90
52889;DHT22;41413;52.770;6.892;2023-02-12T06:08:34;5.90;99.90
52889;DHT22;41413;52.770;6.892;2023-02-12T06:11:02;5.90;99.90
52889;DHT22;41413;52.770;6.892;2023-02-12T06:13:30;5.80;99.90
52889;DHT22;41413;52.770;6.892;2023-02-12T06:15:57;5.80;99.90
52889;DHT22;41413;52.770;6.892;2023-02-12T06:18:25;5.80;99.90
52889;DHT22;41413;52.770;6.892;2023-02-12T06:20:52;5.70;99.90
52889;DHT22;41413;52.770;6.892;2023-02-12T06:23:23;5.70;99.90
52889;DHT22;41413;52.770;6.892;2023-02-12T06:25:54;5.70;99.90
52889;DHT22;41413;52.770;6.892;2023-02-12T06:28:22;5.80;99.90
52889;DHT22;41413;52.770;6.892;2023-02-12T06:30:48;5.80;99.90
52889;DHT22;41413;52.770;6.892;2023-02-12T06:33:15;5.70;99.90
52889;DHT22;41413;52.770;6.892;2023-02-12T06:35:42;5.70;99.90
52889;DHT22;41413;52.770;6.892;2023-02-12T06:38:09;5.70;99.90
52889;DHT22;41413;52.770;6.892;2023-02-12T06:40:35;5.60;99.90
52889;DHT22;41413;52.770;6.892;2023-02-12T06:43:02;5.60;99.90
52889;DHT22;41413;52.770;6.892;2023-02-12T06:45:29;5.60;99.90
52889;DHT22;41413;52.770;6.892;2023-02-12T06:47:55;5.60;99.90
52889;DHT22;41413;52.770;6.892;2023-02-12T06:50:23;5.60;99.90
52889;DHT22;41413;52.770;6.892;2023-02-12T06:52:49;5.50;99.90
52889;DHT22;41413;52.770;6.892;2023-02-12T06:55:16;5.50;99.90
52889;DHT22;41413;52.770;6.892;2023-02-12T06:57:43;5.50;99.90
52889;DHT22;41413;52.770;6.892;2023-02-12T07:00:10;5.50;99.90
52889;DHT22;41413;52.770;6.892;2023-02-12T07:02:37;5.60;99.90
52889;DHT22;41413;52.770;6.892;2023-02-12T07:05:05;5.60;99.90
52889;DHT22;41413;52.770;6.892;2023-02-12T07:07:32;5.60;99.90
52889;DHT22;41413;52.770;6.892;2023-02-12T07:09:58;5.60;99.90
52889;DHT22;41413;52.770;6.892;2023-02-12T07:12:25;5.60;99.90
52889;DHT22;41413;52.770;6.892;2023-02-12T07:14:52;5.60;99.90
52889;DHT22;41413;52.770;6.892;2023-02-12T07:17:18;5.70;99.90
52889;DHT22;41413;52.770;6.892;2023-02-12T07:19:45;5.60;99.90
52889;DHT22;41413;52.770;6.892;2023-02-12T07:22:12;5.60;99.90
52889;DHT22;41413;52.770;6.892;2023-02-12T07:24:38;5.60;99.90
52889;DHT22;41413;52.770;6.892;2023-02-12T07:27:05;5.70;99.90
52889;DHT22;41413;52.770;6.892;2023-02-12T07:29:32;5.70;99.90
52889;DHT22;41413;52.770;6.892;2023-02-12T07:31:59;5.70;99.90
52889;DHT22;41413;52.770;6.892;2023-02-12T07:34:26;5.70;99.90
52889;DHT22;41413;52.770;6.892;2023-02-12T07:36:53;5.80;99.90
52889;DHT22;41413;52.770;6.892;2023-02-12T07:39:19;5.70;99.90
52889;DHT22;41413;52.770;6.892;2023-02-12T07:41:46;5.80;99.90
52889;DHT22;41413;52.770;6.892;2023-02-12T07:44:13;5.90;99.90
52889;DHT22;41413;52.770;6.892;2023-02-12T07:46:42;5.90;99.90
52889;DHT22;41413;52.770;6.892;2023-02-12T07:49:21;6.00;99.90
52889;DHT22;41413;52.770;6.892;2023-02-12T07:51:49;6.00;99.90
52889;DHT22;41413;52.770;6.892;2023-02-12T07:54:16;6.10;99.90
52889;DHT22;41413;52.770;6.892;2023-02-12T07:56:43;6.00;99.90
52889;DHT22;41413;52.770;6.892;2023-02-12T07:59:14;6.10;99.90
52889;DHT22;41413;52.770;6.892;2023-02-12T08:01:45;6.10;99.90
52889;DHT22;41413;52.770;6.892;2023-02-12T08:04:14;6.10;99.90
52889;DHT22;41413;52.770;6.892;2023-02-12T08:06:43;6.10;99.90
52889;DHT22;41413;52.770;6.892;2023-02-12T08:09:13;6.20;99.90
52889;DHT22;41413;52.770;6.892;2023-02-12T08:11:41;6.20;99.90
52889;DHT22;41413;52.770;6.892;2023-02-12T08:14:10;6.20;99.90
52889;DHT22;41413;52.770;6.892;2023-02-12T08:16:39;6.20;99.90
52889;DHT22;41413;52.770;6.892;2023-02-12T08:19:06;6.20;99.90
52889;DHT22;41413;52.770;6.892;2023-02-12T08:21:49;6.30;99.90
52889;DHT22;41413;52.770;6.892;2023-02-12T08:24:16;6.30;99.90
52889;DHT22;41413;52.770;6.892;2023-02-12T08:26:42;6.30;99.90
52889;DHT22;41413;52.770;6.892;2023-02-12T08:29:13;6.30;99.90
52889;DHT22;41413;52.770;6.892;2023-02-12T08:31:42;6.30;99.90
52889;DHT22;41413;52.770;6.892;2023-02-12T08:36:42;6.40;99.90
52889;DHT22;41413;52.770;6.892;2023-02-12T08:39:09;6.40;99.90
52889;DHT22;41413;52.770;6.892;2023-02-12T08:41:36;6.40;99.90
52889;DHT22;41413;52.770;6.892;2023-02-12T08:44:04;6.50;99.90
52889;DHT22;41413;52.770;6.892;2023-02-12T08:46:34;6.50;99.90
52889;DHT22;41413;52.770;6.892;2023-02-12T08:49:03;6.50;99.90
52889;DHT22;41413;52.770;6.892;2023-02-12T08:51:33;6.60;99.90
52889;DHT22;41413;52.770;6.892;2023-02-12T08:54:04;6.60;99.90
52889;DHT22;41413;52.770;6.892;2023-02-12T08:56:32;6.70;99.90
52889;DHT22;41413;52.770;6.892;2023-02-12T08:59:01;6.70;99.90
52889;DHT22;41413;52.770;6.892;2023-02-12T09:01:31;6.80;99.90
52889;DHT22;41413;52.770;6.892;2023-02-12T09:03:59;6.80;99.90
52889;DHT22;41413;52.770;6.892;2023-02-12T09:06:26;6.80;99.90
52889;DHT22;41413;52.770;6.892;2023-02-12T09:08:54;6.80;99.90
52889;DHT22;41413;52.770;6.892;2023-02-12T09:11:23;6.80;99.90
52889;DHT22;41413;52.770;6.892;2023-02-12T09:14:02;6.90;99.90
52889;DHT22;41413;52.770;6.892;2023-02-12T09:16:31;6.90;99.90
52889;DHT22;41413;52.770;6.892;2023-02-12T09:18:58;6.90;99.90
52889;DHT22;41413;52.770;6.892;2023-02-12T09:21:25;7.00;99.90
52889;DHT22;41413;52.770;6.892;2023-02-12T09:23:52;6.90;99.90
52889;DHT22;41413;52.770;6.892;2023-02-12T09:26:21;6.90;99.90
52889;DHT22;41413;52.770;6.892;2023-02-12T09:28:49;6.90;99.90
52889;DHT22;41413;52.770;6.892;2023-02-12T09:31:30;7.10;99.90
52889;DHT22;41413;52.770;6.892;2023-02-12T09:34:02;7.20;99.90
52889;DHT22;41413;52.770;6.892;2023-02-12T09:36:30;7.30;99.90
52889;DHT22;41413;52.770;6.892;2023-02-12T09:38:57;7.50;99.90
52889;DHT22;41413;52.770;6.892;2023-02-12T09:50:11;7.70;99.90
52889;DHT22;41413;52.770;6.892;2023-02-12T09:52:40;7.70;99.90
52889;DHT22;41413;52.770;6.892;2023-02-12T09:55:15;7.70;99.90
52889;DHT22;41413;52.770;6.892;2023-02-12T09:57:42;7.80;99.90
52889;DHT22;41413;52.770;6.892;2023-02-12T10:00:15;7.70;99.90
52889;DHT22;41413;52.770;6.892;2023-02-12T10:02:43;7.80;99.90
52889;DHT22;41413;52.770;6.892;2023-02-12T10:05:57;7.70;99.90
52889;DHT22;41413;52.770;6.892;2023-02-12T10:19:19;8.10;99.90
52889;DHT22;41413;52.770;6.892;2023-02-12T10:22:16;8.20;99.90
52889;DHT22;41413;52.770;6.892;2023-02-12T10:24:42;8.30;99.90
52889;DHT22;41413;52.770;6.892;2023-02-12T10:27:18;8.40;99.90
52889;DHT22;41413;52.770;6.892;2023-02-12T10:29:47;8.30;99.90
52889;DHT22;41413;52.770;6.892;2023-02-12T10:32:29;8.30;99.90
52889;DHT22;41413;52.770;6.892;2023-02-12T10:34:58;8.50;99.90
52889;DHT22;41413;52.770;6.892;2023-02-12T10:37:47;8.90;99.90
52889;DHT22;41413;52.770;6.892;2023-02-12T10:40:26;9.30;99.90
52889;DHT22;41413;52.770;6.892;2023-02-12T10:42:56;10.30;99.90
52889;DHT22;41413;52.770;6.892;2023-02-12T10:48:00;11.70;99.90
52889;DHT22;41413;52.770;6.892;2023-02-12T10:50:49;12.10;99.90
52889;DHT22;41413;52.770;6.892;2023-02-12T10:53:24;12.00;99.90
52889;DHT22;41413;52.770;6.892;2023-02-12T11:01:37;12.90;99.90
52889;DHT22;41413;52.770;6.892;2023-02-12T11:07:01;13.00;99.90
52889;DHT22;41413;52.770;6.892;2023-02-12T11:09:33;12.40;99.90
52889;DHT22;41413;52.770;6.892;2023-02-12T11:12:02;12.60;99.90
52889;DHT22;41413;52.770;6.892;2023-02-12T11:14:29;12.20;99.90
52889;DHT22;41413;52.770;6.892;2023-02-12T11:17:00;12.50;99.90
52889;DHT22;41413;52.770;6.892;2023-02-12T11:19:30;12.30;99.90
52889;DHT22;41413;52.770;6.892;2023-02-12T11:22:23;11.50;99.90
52889;DHT22;41413;52.770;6.892;2023-02-12T11:24:59;11.60;99.90
52889;DHT22;41413;52.770;6.892;2023-02-12T11:27:30;11.70;99.90
52889;DHT22;41413;52.770;6.892;2023-02-12T11:30:17;11.40;99.90
52889;DHT22;41413;52.770;6.892;2023-02-12T11:32:44;10.90;99.90
52889;DHT22;41413;52.770;6.892;2023-02-12T11:35:29;10.70;99.90
52889;DHT22;41413;52.770;6.892;2023-02-12T11:38:02;10.80;99.90
52889;DHT22;41413;52.770;6.892;2023-02-12T11:40:30;10.90;99.90
52889;DHT22;41413;52.770;6.892;2023-02-12T11:43:06;10.70;99.90
52889;DHT22;41413;52.770;6.892;2023-02-12T11:45:41;10.80;99.90
52889;DHT22;41413;52.770;6.892;2023-02-12T11:48:20;10.80;99.90
52889;DHT22;41413;52.770;6.892;2023-02-12T11:50:53;10.80;99.90
52889;DHT22;41413;52.770;6.892;2023-02-12T11:53:27;10.50;99.90
52889;DHT22;41413;52.770;6.892;2023-02-12T12:01:41;10.80;99.90
52889;DHT22;41413;52.770;6.892;2023-02-12T12:04:13;10.90;99.90
52889;DHT22;41413;52.770;6.892;2023-02-12T12:07:12;10.80;99.90
52889;DHT22;41413;52.770;6.892;2023-02-12T12:12:47;10.80;99.90
52889;DHT22;41413;52.770;6.892;2023-02-12T12:15:25;10.70;99.90
52889;DHT22;41413;52.770;6.892;2023-02-12T12:23:55;10.80;99.90
52889;DHT22;41413;52.770;6.892;2023-02-12T12:26:25;10.50;99.90
52889;DHT22;41413;52.770;6.892;2023-02-12T12:29:27;10.50;99.90
52889;DHT22;41413;52.770;6.892;2023-02-12T12:31:59;10.40;99.90
52889;DHT22;41413;52.770;6.892;2023-02-12T12:34:27;10.30;99.90
52889;DHT22;41413;52.770;6.892;2023-02-12T12:53:47;10.20;99.90
52889;DHT22;41413;52.770;6.892;2023-02-12T12:56:28;10.20;99.90
52889;DHT22;41413;52.770;6.892;2023-02-12T13:27:29;10.20;99.90
52889;DHT22;41413;52.770;6.892;2023-02-12T13:33:11;10.20;99.90
52889;DHT22;41413;52.770;6.892;2023-02-12T13:35:44;10.20;99.90
52889;DHT22;41413;52.770;6.892;2023-02-12T13:38:17;10.20;99.90
52889;DHT22;41413;52.770;6.892;2023-02-12T13:40:46;10.20;99.90
52889;DHT22;41413;52.770;6.892;2023-02-12T13:46:23;10.10;99.90
52889;DHT22;41413;52.770;6.892;2023-02-12T13:49:03;10.10;99.90
52889;DHT22;41413;52.770;6.892;2023-02-12T13:51:49;10.00;99.90
52889;DHT22;41413;52.770;6.892;2023-02-12T13:57:15;10.00;99.90
52889;DHT22;41413;52.770;6.892;2023-02-12T13:59:53;10.00;99.90
52889;DHT22;41413;52.770;6.892;2023-02-12T14:04:56;10.10;99.90
52889;DHT22;41413;52.770;6.892;2023-02-12T14:07:45;10.10;99.90
52889;DHT22;41413;52.770;6.892;2023-02-12T14:10:20;10.10;99.90
52889;DHT22;41413;52.770;6.892;2023-02-12T14:12:47;10.00;99.90
52889;DHT22;41413;52.770;6.892;2023-02-12T14:15:32;10.10;99.90
52889;DHT22;41413;52.770;6.892;2023-02-12T14:18:19;10.10;99.90
52889;DHT22;41413;52.770;6.892;2023-02-12T14:20:47;9.90;99.90
52889;DHT22;41413;52.770;6.892;2023-02-12T14:23:25;9.90;99.90
52889;DHT22;41413;52.770;6.892;2023-02-12T14:26:07;9.90;99.90
52889;DHT22;41413;52.770;6.892;2023-02-12T14:28:55;9.90;99.90
52889;DHT22;41413;52.770;6.892;2023-02-12T14:36:45;9.80;99.90
52889;DHT22;41413;52.770;6.892;2023-02-12T14:41:52;9.90;99.90
52889;DHT22;41413;52.770;6.892;2023-02-12T14:46:53;9.80;99.90
52889;DHT22;41413;52.770;6.892;2023-02-12T14:49:35;9.80;99.90
52889;DHT22;41413;52.770;6.892;2023-02-12T14:52:17;9.80;99.90
52889;DHT22;41413;52.770;6.892;2023-02-12T14:54:56;9.80;99.90
52889;DHT22;41413;52.770;6.892;2023-02-12T14:59:58;9.80;99.90
52889;DHT22;41413;52.770;6.892;2023-02-12T15:02:31;9.70;99.90
52889;DHT22;41413;52.770;6.892;2023-02-12T15:05:15;9.70;99.90
52889;DHT22;41413;52.770;6.892;2023-02-12T15:07:49;9.80;99.90
52889;DHT22;41413;52.770;6.892;2023-02-12T15:10:20;9.70;99.90
52889;DHT22;41413;52.770;6.892;2023-02-12T15:15:44;9.50;99.90
52889;DHT22;41413;52.770;6.892;2023-02-12T15:21:23;9.60;99.90
52889;DHT22;41413;52.770;6.892;2023-02-12T15:26:30;9.50;99.90
52889;DHT22;41413;52.770;6.892;2023-02-12T15:28:59;9.40;99.90
52889;DHT22;41413;52.770;6.892;2023-02-12T15:31:28;9.40;99.90
52889;DHT22;41413;52.770;6.892;2023-02-12T15:33:58;9.30;99.90
52889;DHT22;41413;52.770;6.892;2023-02-12T15:36:27;9.30;99.90
52889;DHT22;41413;52.770;6.892;2023-02-12T15:39:00;9.20;99.90
52889;DHT22;41413;52.770;6.892;2023-02-12T15:41:40;9.20;99.90
52889;DHT22;41413;52.770;6.892;2023-02-12T15:44:26;9.20;99.90
52889;DHT22;41413;52.770;6.892;2023-02-12T15:46:58;9.20;99.90
52889;DHT22;41413;52.770;6.892;2023-02-12T15:49:43;9.20;99.90
52889;DHT22;41413;52.770;6.892;2023-02-12T15:52:22;9.30;99.90
52889;DHT22;41413;52.770;6.892;2023-02-12T15:54:50;9.30;99.90
52889;DHT22;41413;52.770;6.892;2023-02-12T15:57:24;9.30;99.90
52889;DHT22;41413;52.770;6.892;2023-02-12T15:59:56;9.30;99.90
52889;DHT22;41413;52.770;6.892;2023-02-12T16:02:28;9.30;99.90
52889;DHT22;41413;52.770;6.892;2023-02-12T16:04:59;9.20;99.90
52889;DHT22;41413;52.770;6.892;2023-02-12T16:07:31;9.20;99.90
52889;DHT22;41413;52.770;6.892;2023-02-12T16:10:01;9.20;99.90
52889;DHT22;41413;52.770;6.892;2023-02-12T16:12:30;9.20;99.90
52889;DHT22;41413;52.770;6.892;2023-02-12T16:14:58;9.20;99.90
52889;DHT22;41413;52.770;6.892;2023-02-12T16:17:34;9.20;99.90
52889;DHT22;41413;52.770;6.892;2023-02-12T16:22:42;9.20;99.90
52889;DHT22;41413;52.770;6.892;2023-02-12T16:25:31;9.10;99.90
52889;DHT22;41413;52.770;6.892;2023-02-12T16:28:16;9.20;99.90
52889;DHT22;41413;52.770;6.892;2023-02-12T16:30:45;9.10;99.90
52889;DHT22;41413;52.770;6.892;2023-02-12T16:36:08;9.00;99.90
52889;DHT22;41413;52.770;6.892;2023-02-12T16:39:03;8.90;99.90
52889;DHT22;41413;52.770;6.892;2023-02-12T16:41:32;8.90;99.90
52889;DHT22;41413;52.770;6.892;2023-02-12T16:46:34;8.90;99.90
52889;DHT22;41413;52.770;6.892;2023-02-12T16:49:17;8.90;99.90
52889;DHT22;41413;52.770;6.892;2023-02-12T16:51:45;8.90;99.90
52889;DHT22;41413;52.770;6.892;2023-02-12T16:54:30;8.90;99.90
52889;DHT22;41413;52.770;6.892;2023-02-12T16:56:58;8.90;99.90
52889;DHT22;41413;52.770;6.892;2023-02-12T16:59:26;8.90;99.90
52889;DHT22;41413;52.770;6.892;2023-02-12T17:02:01;8.90;99.90
52889;DHT22;41413;52.770;6.892;2023-02-12T17:04:29;8.90;99.90
52889;DHT22;41413;52.770;6.892;2023-02-12T17:06:56;8.90;99.90
52889;DHT22;41413;52.770;6.892;2023-02-12T17:09:23;8.90;99.90
52889;DHT22;41413;52.770;6.892;2023-02-12T17:11:50;8.90;99.90
52889;DHT22;41413;52.770;6.892;2023-02-12T17:14:18;8.90;99.90
52889;DHT22;41413;52.770;6.892;2023-02-12T17:16:46;8.90;99.90
52889;DHT22;41413;52.770;6.892;2023-02-12T17:19:13;8.90;99.90
52889;DHT22;41413;52.770;6.892;2023-02-12T17:21:42;8.80;99.90
52889;DHT22;41413;52.770;6.892;2023-02-12T17:24:19;8.80;99.90
52889;DHT22;41413;52.770;6.892;2023-02-12T17:26:46;8.80;99.90
52889;DHT22;41413;52.770;6.892;2023-02-12T17:29:17;8.70;99.90
52889;DHT22;41413;52.770;6.892;2023-02-12T17:31:44;8.70;99.90
52889;DHT22;41413;52.770;6.892;2023-02-12T17:34:11;8.80;99.90
52889;DHT22;41413;52.770;6.892;2023-02-12T17:36:37;8.80;99.90
52889;DHT22;41413;52.770;6.892;2023-02-12T17:39:05;8.80;99.90
52889;DHT22;41413;52.770;6.892;2023-02-12T17:41:33;8.70;99.90
52889;DHT22;41413;52.770;6.892;2023-02-12T17:43:59;8.80;99.90
52889;DHT22;41413;52.770;6.892;2023-02-12T17:46:27;8.80;99.90
52889;DHT22;41413;52.770;6.892;2023-02-12T17:48:55;8.80;99.90
52889;DHT22;41413;52.770;6.892;2023-02-12T17:51:22;8.70;99.90
52889;DHT22;41413;52.770;6.892;2023-02-12T17:53:50;8.80;99.90
52889;DHT22;41413;52.770;6.892;2023-02-12T17:56:20;8.80;99.90
52889;DHT22;41413;52.770;6.892;2023-02-12T17:58:48;8.80;99.90
52889;DHT22;41413;52.770;6.892;2023-02-12T18:01:16;8.80;99.90
52889;DHT22;41413;52.770;6.892;2023-02-12T18:03:43;8.80;99.90
52889;DHT22;41413;52.770;6.892;2023-02-12T18:06:10;8.80;99.90
52889;DHT22;41413;52.770;6.892;2023-02-12T18:08:40;8.80;99.90
52889;DHT22;41413;52.770;6.892;2023-02-12T18:11:09;8.80;99.90
52889;DHT22;41413;52.770;6.892;2023-02-12T18:13:36;8.80;99.90
52889;DHT22;41413;52.770;6.892;2023-02-12T18:16:07;8.80;99.90
52889;DHT22;41413;52.770;6.892;2023-02-12T18:18:35;8.70;99.90
52889;DHT22;41413;52.770;6.892;2023-02-12T18:21:09;8.70;99.90
52889;DHT22;41413;52.770;6.892;2023-02-12T18:23:37;8.70;99.90
52889;DHT22;41413;52.770;6.892;2023-02-12T18:26:10;8.70;99.90
52889;DHT22;41413;52.770;6.892;2023-02-12T18:28:36;8.70;99.90
52889;DHT22;41413;52.770;6.892;2023-02-12T18:31:04;8.70;99.90
52889;DHT22;41413;52.770;6.892;2023-02-12T18:33:32;8.60;99.90
52889;DHT22;41413;52.770;6.892;2023-02-12T18:38:30;8.60;99.90
52889;DHT22;41413;52.770;6.892;2023-02-12T18:40:57;8.60;99.90
52889;DHT22;41413;52.770;6.892;2023-02-12T18:43:26;8.60;99.90
52889;DHT22;41413;52.770;6.892;2023-02-12T18:45:53;8.60;99.90
52889;DHT22;41413;52.770;6.892;2023-02-12T18:48:20;8.50;99.90
52889;DHT22;41413;52.770;6.892;2023-02-12T18:50:47;8.50;99.90
52889;DHT22;41413;52.770;6.892;2023-02-12T18:53:17;8.50;99.90
52889;DHT22;41413;52.770;6.892;2023-02-12T18:55:44;8.50;99.90
52889;DHT22;41413;52.770;6.892;2023-02-12T18:58:11;8.50;99.90
52889;DHT22;41413;52.770;6.892;2023-02-12T19:00:37;8.50;99.90
52889;DHT22;41413;52.770;6.892;2023-02-12T19:03:04;8.40;99.90
52889;DHT22;41413;52.770;6.892;2023-02-12T19:05:31;8.40;99.90
52889;DHT22;41413;52.770;6.892;2023-02-12T19:07:57;8.50;99.90
52889;DHT22;41413;52.770;6.892;2023-02-12T19:10:24;8.40;99.90